sensor_id;sensor_type;location;lat;lon;timestamp;pressure;altitude;pressure_sealevel;temperature;humidity
85897;BME280;76442;52.412;16.940;2024-03-07T00:05:09;102223.0;;;1.55;80.93
85897;BME280;76442;52.412;16.940;2024-03-07T00:20:09;102225.0;;;1.42;81.29
85897;BME280;76442;52.412;16.940;2024-03-07T00:35:09;102223.0;;;1.42;80.67
85897;BME280;76442;52.412;16.940;2024-03-07T00:50:10;102220.0;;;1.56;80.03
85897;BME280;76442;52.412;16.940;2024-03-07T01:05:10;102210.0;;;1.79;78.09
85897;BME280;76442;52.412;16.940;2024-03-07T01:25:09;102214.0;;;1.85;77.59
85897;BME280;76442;52.412;16.940;2024-03-07T01:40:09;102220.0;;;1.78;77.54
85897;BME280;76442;52.412;16.940;2024-03-07T01:55:09;102217.0;;;1.61;78.38
85897;BME280;76442;52.412;16.940;2024-03-07T02:30:10;102221.0;;;1.58;78.42
85897;BME280;76442;52.412;16.940;2024-03-07T02:55:09;102227.0;;;1.47;79.21
85897;BME280;76442;52.412;16.940;2024-03-07T03:10:10;102227.0;;;1.09;79.97
85897;BME280;76442;52.412;16.940;2024-03-07T03:25:10;102228.0;;;0.78;81.16
85897;BME280;76442;52.412;16.940;2024-03-07T03:45:09;102234.0;;;0.39;81.98
85897;BME280;76442;52.412;16.940;2024-03-07T04:00:09;102232.0;;;0.2;82.57
85897;BME280;76442;52.412;16.940;2024-03-07T04:15:09;102233.0;;;-0.07;83.1
85897;BME280;76442;52.412;16.940;2024-03-07T04:30:09;102237.0;;;-0.28;84.23
85897;BME280;76442;52.412;16.940;2024-03-07T04:45:09;102234.0;;;-0.46;84.89
85897;BME280;76442;52.412;16.940;2024-03-07T05:00:09;102235.0;;;-0.66;85.48
85897;BME280;76442;52.412;16.940;2024-03-07T05:15:09;102237.0;;;-0.78;85.89
85897;BME280;76442;52.412;16.940;2024-03-07T05:30:09;102242.0;;;-0.8;86.03
85897;BME280;76442;52.412;16.940;2024-03-07T05:45:09;102261.0;;;-0.48;85.4
85897;BME280;76442;52.412;16.940;2024-03-07T06:00:09;102265.0;;;0.91;81.35
85897;BME280;76442;52.412;16.940;2024-03-07T06:20:10;102277.0;;;1.97;76.3
85897;BME280;76442;52.412;16.940;2024-03-07T06:35:09;102286.0;;;2.86;72.83
85897;BME280;76442;52.412;16.940;2024-03-07T06:50:09;102295.0;;;3.09;70.64
85897;BME280;76442;52.412;16.940;2024-03-07T07:05:09;102306.0;;;3.52;67.97
85897;BME280;76442;52.412;16.940;2024-03-07T07:20:09;102310.0;;;3.59;67.42
85897;BME280;76442;52.412;16.940;2024-03-07T07:35:09;102307.0;;;4.04;65.29
85897;BME280;76442;52.412;16.940;2024-03-07T07:50:09;102305.0;;;4.32;62.99
85897;BME280;76442;52.412;16.940;2024-03-07T08:10:09;102319.0;;;4.27;62.43
85897;BME280;76442;52.412;16.940;2024-03-07T08:25:09;102313.0;;;4.74;62.09
85897;BME280;76442;52.412;16.940;2024-03-07T08:40:10;102311.0;;;4.69;58.43
85897;BME280;76442;52.412;16.940;2024-03-07T08:55:10;102320.0;;;4.62;56.95
85897;BME280;76442;52.412;16.940;2024-03-07T09:15:09;102314.0;;;4.84;56.11
85897;BME280;76442;52.412;16.940;2024-03-07T09:30:09;102292.0;;;5.26;56.66
85897;BME280;76442;52.412;16.940;2024-03-07T09:45:09;102291.0;;;5.43;56.11
85897;BME280;76442;52.412;16.940;2024-03-07T10:00:09;102290.0;;;5.41;53.73
85897;BME280;76442;52.412;16.940;2024-03-07T10:15:09;102277.0;;;5.5;54.48
85897;BME280;76442;52.412;16.940;2024-03-07T10:30:09;102271.0;;;5.65;54.59
85897;BME280;76442;52.412;16.940;2024-03-07T10:45:09;102280.0;;;5.64;54.14
85897;BME280;76442;52.412;16.940;2024-03-07T11:00:09;102283.0;;;5.51;53.2
85897;BME280;76442;52.412;16.940;2024-03-07T11:15:09;102255.0;;;5.69;53.21
85897;BME280;76442;52.412;16.940;2024-03-07T11:30:09;102244.0;;;5.75;53.91
85897;BME280;76442;52.412;16.940;2024-03-07T11:45:09;102224.0;;;5.8;53.47
85897;BME280;76442;52.412;16.940;2024-03-07T12:00:09;102213.0;;;6.0;53.38
85897;BME280;76442;52.412;16.940;2024-03-07T12:15:09;102210.0;;;6.04;52.71
85897;BME280;76442;52.412;16.940;2024-03-07T12:30:09;102189.0;;;6.19;52.26
85897;BME280;76442;52.412;16.940;2024-03-07T12:45:09;102183.0;;;6.26;52.3
85897;BME280;76442;52.412;16.940;2024-03-07T13:00:10;102180.0;;;6.36;52.14
85897;BME280;76442;52.412;16.940;2024-03-07T13:15:09;102175.0;;;6.51;50.96
85897;BME280;76442;52.412;16.940;2024-03-07T13:30:10;102168.0;;;6.54;50.91
85897;BME280;76442;52.412;16.940;2024-03-07T13:45:10;102151.0;;;6.44;50.88
85897;BME280;76442;52.412;16.940;2024-03-07T14:00:10;102149.0;;;6.54;51.81
85897;BME280;76442;52.412;16.940;2024-03-07T14:20:09;102140.0;;;6.65;53.67
85897;BME280;76442;52.412;16.940;2024-03-07T14:40:10;102146.0;;;6.69;51.8
85897;BME280;76442;52.412;16.940;2024-03-07T15:00:09;102139.0;;;6.66;52.57
85897;BME280;76442;52.412;16.940;2024-03-07T15:15:09;102118.0;;;6.58;51.73
85897;BME280;76442;52.412;16.940;2024-03-07T15:30:09;102110.0;;;6.57;51.56
85897;BME280;76442;52.412;16.940;2024-03-07T15:45:09;102109.0;;;6.5;52.23
85897;BME280;76442;52.412;16.940;2024-03-07T16:00:09;102102.0;;;6.33;52.61
85897;BME280;76442;52.412;16.940;2024-03-07T16:15:09;102101.0;;;6.19;53.33
85897;BME280;76442;52.412;16.940;2024-03-07T16:30:09;102105.0;;;5.96;54.36
85897;BME280;76442;52.412;16.940;2024-03-07T16:45:09;102100.0;;;5.72;54.99
85897;BME280;76442;52.412;16.940;2024-03-07T17:00:09;102104.0;;;5.46;56.8
85897;BME280;76442;52.412;16.940;2024-03-07T17:15:09;102103.0;;;5.16;57.95
85897;BME280;76442;52.412;16.940;2024-03-07T17:30:09;102111.0;;;4.85;59.04
85897;BME280;76442;52.412;16.940;2024-03-07T17:45:09;102115.0;;;4.56;60.94
85897;BME280;76442;52.412;16.940;2024-03-07T18:00:09;102120.0;;;4.08;63.26
85897;BME280;76442;52.412;16.940;2024-03-07T18:15:10;102124.0;;;3.65;66.34
85897;BME280;76442;52.412;16.940;2024-03-07T18:40:09;102126.0;;;3.09;70.04
85897;BME280;76442;52.412;16.940;2024-03-07T18:55:09;102123.0;;;2.86;70.51
85897;BME280;76442;52.412;16.940;2024-03-07T19:10:09;102125.0;;;2.6;71.91
85897;BME280;76442;52.412;16.940;2024-03-07T19:25:09;102135.0;;;2.38;72.73
85897;BME280;76442;52.412;16.940;2024-03-07T19:45:09;102141.0;;;2.01;76.37
85897;BME280;76442;52.412;16.940;2024-03-07T20:05:09;102125.0;;;1.66;75.66
85897;BME280;76442;52.412;16.940;2024-03-07T20:20:09;102126.0;;;1.47;76.64
85897;BME280;76442;52.412;16.940;2024-03-07T20:35:09;102131.0;;;1.22;76.88
85897;BME280;76442;52.412;16.940;2024-03-07T20:50:09;102127.0;;;0.98;77.04
85897;BME280;76442;52.412;16.940;2024-03-07T21:05:09;102125.0;;;0.69;78.62
85897;BME280;76442;52.412;16.940;2024-03-07T21:25:09;102122.0;;;0.41;80.31
85897;BME280;76442;52.412;16.940;2024-03-07T21:40:09;102114.0;;;0.21;82.0
85897;BME280;76442;52.412;16.940;2024-03-07T21:55:09;102111.0;;;-0.009999999;84.33
85897;BME280;76442;52.412;16.940;2024-03-07T22:10:09;102111.0;;;0.009999999;85.93
85897;BME280;76442;52.412;16.940;2024-03-07T22:25:09;102115.0;;;-0.2;85.24
85897;BME280;76442;52.412;16.940;2024-03-07T22:40:09;102104.0;;;-0.35;86.03
85897;BME280;76442;52.412;16.940;2024-03-07T22:55:09;102105.0;;;-0.53;86.42
85897;BME280;76442;52.412;16.940;2024-03-07T23:10:09;102093.0;;;-0.74;87.08
85897;BME280;76442;52.412;16.940;2024-03-07T23:25:09;102090.0;;;-0.81;87.69
85897;BME280;76442;52.412;16.940;2024-03-07T23:40:09;102082.0;;;-0.92;87.81
85897;BME280;76442;52.412;16.940;2024-03-07T23:55:09;102079.0;;;-0.98;87.74
